Time;durP1;ratioP1;P1;durP2;ratioP2;P2;SDS_P1;SDS_P2;PMS_P1;PMS_P2;Temp;Humidity;BMP_temperature;BMP_pressure;BME280_temperature;BME280_humidity;BME280_pressure;Samples;Min_cycle;Max_cycle;Signal;HPM_P1;HPM_P2
2021/12/14 00:00:17;;;;;;;17.13;11.73;;;8.70;99.90;;;;;;5032049;28;20041;-74
2021/12/14 00:02:43;;;;;;;20.80;12.73;;;8.70;99.90;;;;;;5031966;28;20124;-74
2021/12/14 00:05:10;;;;;;;18.52;11.57;;;8.70;99.90;;;;;;5030509;28;20360;-74
2021/12/14 00:07:36;;;;;;;27.83;14.48;;;8.70;99.90;;;;;;5030724;28;20171;-74
2021/12/14 00:10:15;;;;;;;23.50;13.50;;;8.70;99.90;;;;;;5032060;28;20116;-74
2021/12/14 00:12:57;;;;;;;17.75;12.48;;;8.70;99.90;;;;;;5032171;28;20025;-74
2021/12/14 00:15:23;;;;;;;;;;;8.70;99.90;;;;;;5032241;28;20109;-74
2021/12/14 00:17:54;;;;;;;18.33;13.00;;;8.70;99.90;;;;;;5029445;28;20016;-74
2021/12/14 00:20:38;;;;;;;19.67;13.38;;;8.70;99.90;;;;;;5040502;28;20028;-74
2021/12/14 00:25:38;;;;;;;27.85;14.63;;;8.70;99.90;;;;;;5051581;28;20100;-74
2021/12/14 00:28:14;;;;;;;20.42;13.50;;;8.70;99.90;;;;;;5050341;28;20469;-74
2021/12/14 00:30:42;;;;;;;21.10;13.88;;;8.70;99.90;;;;;;5051699;28;20037;-74
2021/12/14 00:33:12;;;;;;;21.60;14.25;;;8.70;99.90;;;;;;5051578;28;20035;-74
2021/12/14 00:35:38;;;;;;;22.27;15.45;;;8.70;99.90;;;;;;5051361;28;20033;-74
2021/12/14 00:38:04;;;;;;;26.83;15.35;;;8.70;99.90;;;;;;5050738;28;20609;-74
2021/12/14 00:40:42;;;;;;;24.50;15.70;;;8.70;99.90;;;;;;5050207;28;20033;-74
2021/12/14 00:43:09;;;;;;;24.20;15.88;;;8.70;99.90;;;;;;5048800;28;20029;-74
2021/12/14 00:45:39;;;;;;;23.92;15.25;;;8.70;99.90;;;;;;5049391;28;20174;-74
2021/12/14 00:48:08;;;;;;;23.95;14.80;;;8.70;99.90;;;;;;5050754;28;20052;-74
2021/12/14 00:50:40;;;;;;;26.00;15.70;;;8.70;99.90;;;;;;5050272;28;20029;-74
2021/12/14 00:53:06;;;;;;;23.33;15.15;;;8.70;99.90;;;;;;5048923;28;20104;-74
2021/12/14 00:55:36;;;;;;;29.13;17.10;;;8.70;99.90;;;;;;5049863;28;20033;-74
2021/12/14 00:58:04;;;;;;;25.10;16.35;;;8.70;99.90;;;;;;5051306;28;20484;-74
2021/12/14 01:00:34;;;;;;;25.25;15.60;;;8.70;99.90;;;;;;5051247;28;20048;-74
2021/12/14 01:03:00;;;;;;;24.85;15.27;;;8.80;99.90;;;;;;5051193;28;20033;-74
2021/12/14 01:05:33;;;;;;;25.50;15.98;;;8.70;99.90;;;;;;5051081;28;20037;-74
2021/12/14 01:08:01;;;;;;;27.58;15.95;;;8.70;99.90;;;;;;5051511;28;20025;-74
2021/12/14 01:10:36;;;;;;;28.95;16.75;;;8.80;99.90;;;;;;5050984;28;20037;-74
2021/12/14 01:13:06;;;;;;;26.33;16.70;;;8.70;99.90;;;;;;5051095;28;20017;-73
2021/12/14 01:18:44;;;;;;;28.13;17.42;;;8.70;99.90;;;;;;5051310;28;20475;-74
2021/12/14 01:24:05;;;;;;;33.42;17.45;;;8.80;99.90;;;;;;5051222;28;20036;-73
2021/12/14 01:26:33;;;;;;;27.88;17.63;;;8.70;99.90;;;;;;5051065;28;20503;-74
2021/12/14 01:29:02;;;;;;;26.20;16.45;;;8.60;99.90;;;;;;5053813;28;20090;-74
2021/12/14 01:31:35;;;;;;;29.98;18.70;;;8.60;99.90;;;;;;5054695;28;20032;-74
2021/12/14 01:34:09;;;;;;;29.52;18.10;;;8.60;99.90;;;;;;5054583;28;20463;-74
2021/12/14 01:36:42;;;;;;;27.70;18.05;;;8.50;99.90;;;;;;5054626;28;20108;-74
2021/12/14 01:42:02;;;;;;;33.85;19.83;;;8.50;99.90;;;;;;5054662;28;20029;-74
2021/12/14 01:44:34;;;;;;;30.20;18.92;;;8.60;99.90;;;;;;5054313;28;20032;-74
2021/12/14 01:47:08;;;;;;;32.83;18.95;;;8.60;99.90;;;;;;5054437;28;20044;-74
2021/12/14 01:49:34;;;;;;;30.45;18.83;;;8.50;99.90;;;;;;5052763;28;20463;-74
2021/12/14 01:52:05;;;;;;;28.95;17.48;;;8.60;99.90;;;;;;5054162;28;20143;-74
2021/12/14 01:54:38;;;;;;;28.40;16.88;;;8.60;99.90;;;;;;5054107;28;20099;-74
2021/12/14 01:57:07;;;;;;;32.40;19.80;;;8.60;99.90;;;;;;5054243;28;20027;-74
2021/12/14 01:59:36;;;;;;;34.05;20.98;;;8.60;99.90;;;;;;5054301;28;20040;-74
2021/12/14 02:02:20;;;;;;;31.90;19.40;;;8.60;99.90;;;;;;5052688;28;20380;-74
2021/12/14 02:04:50;;;;;;;33.75;18.67;;;8.60;99.90;;;;;;5052954;28;20404;-74
2021/12/14 02:07:17;;;;;;;36.67;19.70;;;8.60;99.90;;;;;;5054247;28;20071;-73
2021/12/14 02:09:45;;;;;;;33.65;19.98;;;8.70;99.90;;;;;;5053838;28;20112;-74
2021/12/14 02:12:15;;;;;;;32.28;20.52;;;8.60;99.90;;;;;;5052624;28;20021;-74
2021/12/14 02:14:40;;;;;;;38.30;21.80;;;8.70;99.90;;;;;;5053637;28;20033;-74
2021/12/14 02:17:11;;;;;;;33.72;20.58;;;8.60;99.90;;;;;;5054034;28;20025;-74
2021/12/14 02:19:37;;;;;;;37.50;20.58;;;8.60;99.90;;;;;;5050446;28;20100;-74
2021/12/14 02:22:05;;;;;;;37.88;21.40;;;8.70;99.90;;;;;;5044459;28;20111;-74
2021/12/14 02:24:32;;;;;;;35.53;21.08;;;8.60;99.90;;;;;;5053707;28;20071;-74
2021/12/14 02:26:59;;;;;;;34.53;21.27;;;8.60;99.90;;;;;;5052346;28;20029;-74
2021/12/14 02:29:29;;;;;;;36.25;21.33;;;8.60;99.90;;;;;;5053678;28;20116;-74
2021/12/14 02:32:08;;;;;;;40.38;21.85;;;8.60;99.90;;;;;;5053583;28;20082;-74
2021/12/14 02:35:00;;;;;;;39.22;21.98;;;8.60;99.90;;;;;;5053461;28;20032;-74
2021/12/14 02:37:38;;;;;;;39.05;21.20;;;8.60;99.90;;;;;;5053639;28;20470;-74
2021/12/14 02:40:18;;;;;;;38.33;22.42;;;8.60;99.90;;;;;;5052701;28;20359;-74
2021/12/14 02:42:44;;;;;;;40.17;22.85;;;8.60;99.90;;;;;;5053524;28;20127;-74
2021/12/14 02:45:11;;;;;;;41.58;24.23;;;8.70;99.90;;;;;;5053388;28;20079;-74
2021/12/14 02:47:36;;;;;;;41.08;22.52;;;8.70;99.90;;;;;;5053284;28;20039;-74
2021/12/14 02:50:04;;;;;;;41.25;23.40;;;8.70;99.90;;;;;;5053011;28;20487;-74
2021/12/14 02:52:36;;;;;;;40.35;23.50;;;8.70;99.90;;;;;;5051617;28;20083;-74
2021/12/14 02:55:14;;;;;;;40.63;23.30;;;8.60;99.90;;;;;;5053271;28;20060;-74
2021/12/14 02:57:50;;;;;;;40.13;23.58;;;8.60;99.90;;;;;;5053116;28;20047;-74
2021/12/14 03:00:24;;;;;;;38.25;23.13;;;8.60;99.90;;;;;;5053104;28;20395;-74
2021/12/14 03:02:50;;;;;;;40.80;22.88;;;8.60;99.90;;;;;;5053087;28;20345;-74
2021/12/14 03:05:20;;;;;;;40.25;23.33;;;8.50;99.90;;;;;;5053094;28;20164;-74
2021/12/14 03:07:51;;;;;;;40.08;23.40;;;8.50;99.90;;;;;;5053563;28;20041;-74
2021/12/14 03:10:49;;;;;;;38.05;23.63;;;8.50;99.90;;;;;;5051476;28;20056;-74
2021/12/14 03:13:15;;;;;;;42.63;25.38;;;8.50;99.90;;;;;;5051586;28;20403;-74
2021/12/14 03:15:50;;;;;;;43.92;23.88;;;8.60;99.90;;;;;;5052843;28;20104;-73
2021/12/14 03:18:25;;;;;;;42.10;25.30;;;8.50;99.90;;;;;;5052893;28;20060;-73
2021/12/14 03:20:58;;;;;;;43.50;24.27;;;8.70;99.90;;;;;;5048674;28;20033;-74
2021/12/14 03:23:24;;;;;;;46.42;25.38;;;8.60;99.90;;;;;;5052734;28;20107;-74
2021/12/14 03:25:53;;;;;;;44.17;24.73;;;8.60;99.90;;;;;;5052612;28;20361;-74
2021/12/14 03:28:22;;;;;;;45.63;25.95;;;8.50;99.90;;;;;;5051152;28;20040;-74
2021/12/14 03:30:47;;;;;;;45.83;24.90;;;8.50;99.90;;;;;;5052608;28;20024;-74
2021/12/14 03:33:22;;;;;;;41.47;24.20;;;8.50;99.90;;;;;;5051180;28;20032;-74
2021/12/14 03:36:10;;;;;;;45.28;26.17;;;8.60;99.90;;;;;;5052409;28;20071;-74
2021/12/14 03:39:15;;;;;;;49.97;26.58;;;8.50;99.90;;;;;;5052518;28;20053;-74
2021/12/14 03:41:58;;;;;;;48.33;27.45;;;8.60;99.90;;;;;;5051182;28;20071;-74
2021/12/14 03:44:37;;;;;;;44.58;24.80;;;8.60;99.90;;;;;;5052342;28;20032;-74
2021/12/14 03:47:17;;;;;;;47.35;26.67;;;8.50;99.90;;;;;;5051111;28;20025;-74
2021/12/14 03:49:47;;;;;;;47.10;26.67;;;8.50;99.90;;;;;;5051888;28;20082;-74
2021/12/14 03:52:16;;;;;;;46.85;25.52;;;8.50;99.90;;;;;;5051231;28;20040;-74
2021/12/14 03:54:42;;;;;;;43.55;24.95;;;8.50;99.90;;;;;;5052304;28;20013;-74
2021/12/14 03:57:08;;;;;;;48.25;26.70;;;8.50;99.90;;;;;;5052264;28;20020;-75
2021/12/14 03:59:34;;;;;;;45.58;25.50;;;8.50;99.90;;;;;;5050842;28;20029;-74
2021/12/14 04:02:04;;;;;;;46.45;27.13;;;8.50;99.90;;;;;;5052033;28;20043;-74
2021/12/14 04:04:52;;;;;;;47.63;26.13;;;8.40;99.90;;;;;;5051874;28;20080;-74
2021/12/14 04:07:18;;;;;;;48.65;26.80;;;8.50;99.90;;;;;;5051922;28;20037;-74
2021/12/14 04:09:44;;;;;;;45.90;26.25;;;8.50;99.90;;;;;;5051867;28;20029;-74
2021/12/14 04:12:14;;;;;;;46.55;25.80;;;8.50;99.90;;;;;;5050554;28;20017;-74
2021/12/14 04:14:43;;;;;;;45.25;25.95;;;8.60;99.90;;;;;;5051884;28;20347;-74
2021/12/14 04:17:10;;;;;;;46.75;26.58;;;8.50;99.90;;;;;;5051948;28;20184;-74
2021/12/14 04:19:38;;;;;;;45.00;25.88;;;8.60;99.90;;;;;;5048779;28;20032;-74
2021/12/14 04:22:09;;;;;;;48.20;27.63;;;8.60;99.90;;;;;;5042602;28;20025;-75
2021/12/14 04:24:38;;;;;;;46.90;26.70;;;8.60;99.90;;;;;;5050135;28;20033;-74
2021/12/14 04:27:09;;;;;;;49.10;26.92;;;8.50;99.90;;;;;;5051789;28;20040;-74
2021/12/14 04:29:35;;;;;;;48.78;26.63;;;8.60;99.90;;;;;;5051732;28;20112;-74
2021/12/14 04:32:01;;;;;;;46.40;25.40;;;8.60;99.90;;;;;;5051689;28;20499;-74
2021/12/14 04:34:30;;;;;;;46.63;26.35;;;8.60;99.90;;;;;;5050223;28;20212;-74
2021/12/14 04:36:56;;;;;;;49.15;27.25;;;8.50;99.90;;;;;;5051655;28;20590;-74
2021/12/14 04:53:08;;;;;;;42.80;25.42;;;8.40;99.90;;;;;;5048765;28;20143;-74
2021/12/14 04:55:34;;;;;;;42.38;23.50;;;8.40;99.90;;;;;;5048802;28;20112;-74
2021/12/14 04:58:00;;;;;;;42.97;25.60;;;8.40;99.90;;;;;;5051097;28;20032;-74
2021/12/14 05:00:34;;;;;;;45.78;25.52;;;8.40;99.90;;;;;;5051095;28;20033;-74
2021/12/14 05:03:04;;;;;;;41.42;24.02;;;8.40;99.90;;;;;;5050941;28;20382;-74
2021/12/14 05:05:34;;;;;;;38.80;22.73;;;8.40;99.90;;;;;;5054843;28;20049;-74
2021/12/14 05:11:01;;;;;;;45.17;23.73;;;8.40;99.90;;;;;;5055110;28;20035;-74
2021/12/14 05:13:43;;;;;;;45.22;23.67;;;8.30;99.90;;;;;;5053819;28;20025;-74
2021/12/14 05:16:20;;;;;;;40.50;23.40;;;8.40;99.90;;;;;;5053833;28;20056;-74
2021/12/14 05:18:52;;;;;;;40.83;23.90;;;8.40;99.90;;;;;;5053800;28;20040;-74
2021/12/14 05:21:25;;;;;;;43.92;22.92;;;8.30;99.90;;;;;;5054855;28;20601;-74
2021/12/14 05:23:51;;;;;;;42.72;23.65;;;8.40;99.90;;;;;;5053529;28;20040;-74
2021/12/14 05:26:18;;;;;;;38.55;22.52;;;8.40;99.90;;;;;;5054959;28;20031;-80
2021/12/14 05:28:44;;;;;;;39.25;21.95;;;8.30;99.90;;;;;;5056094;28;20491;-81
2021/12/14 05:31:10;;;;;;;42.13;21.70;;;8.30;99.90;;;;;;5056232;28;20405;-81
2021/12/14 05:33:37;;;;;;;40.58;22.60;;;8.40;99.90;;;;;;5056461;28;20025;-81
2021/12/14 05:36:08;;;;;;;41.65;23.05;;;8.40;99.90;;;;;;5055904;28;20398;-81
2021/12/14 05:43:51;;;;;;;34.38;21.13;;;8.30;99.90;;;;;;5056018;28;20032;-81
2021/12/14 05:46:20;;;;;;;39.97;21.58;;;8.40;99.90;;;;;;5055826;28;20100;-81
2021/12/14 05:48:46;;;;;;;35.33;20.73;;;8.40;99.90;;;;;;5054280;28;20475;-81
2021/12/14 05:51:12;;;;;;;33.70;19.40;;;8.40;99.90;;;;;;5055720;28;20028;-80
2021/12/14 05:53:44;;;;;;;34.63;19.40;;;8.40;99.90;;;;;;5054413;28;20413;-80
2021/12/14 05:56:13;;;;;;;34.83;20.00;;;8.40;99.90;;;;;;5054238;28;20083;-81
2021/12/14 05:58:39;;;;;;;37.30;19.80;;;8.30;99.90;;;;;;5055400;28;20029;-81
2021/12/14 06:01:08;;;;;;;35.63;20.02;;;8.30;99.90;;;;;;5054611;28;20066;-81
2021/12/14 06:03:39;;;;;;;34.35;19.90;;;8.30;99.90;;;;;;5055414;28;20067;-81
2021/12/14 06:06:14;;;;;;;34.80;19.90;;;8.30;99.90;;;;;;5055554;28;20087;-81
2021/12/14 06:08:40;;;;;;;36.63;20.85;;;8.30;99.90;;;;;;5055455;28;20037;-81
2021/12/14 06:11:05;;;;;;;34.85;20.30;;;8.30;99.90;;;;;;5055461;28;20340;-81
2021/12/14 06:13:41;;;;;;;33.50;19.88;;;8.30;99.90;;;;;;5055585;28;20025;-81
2021/12/14 06:16:19;;;;;;;33.60;20.10;;;8.40;99.90;;;;;;5054585;28;20021;-81
2021/12/14 06:18:45;;;;;;;33.25;19.88;;;8.30;99.90;;;;;;5055108;28;20043;-81
2021/12/14 06:21:11;;;;;;;33.65;19.95;;;8.30;99.90;;;;;;5039440;28;20100;-81
2021/12/14 06:23:37;;;;;;;38.33;20.63;;;8.30;99.90;;;;;;5035214;28;20025;-81
2021/12/14 06:26:03;;;;;;;35.47;20.35;;;8.20;99.90;;;;;;5035177;28;20041;-81
2021/12/14 06:28:29;;;;;;;35.95;20.58;;;8.30;99.90;;;;;;5035501;28;20025;-81
2021/12/14 06:30:57;;;;;;;35.30;20.17;;;8.30;99.90;;;;;;5034968;28;20104;-81
2021/12/14 06:33:29;;;;;;;33.70;19.38;;;8.30;99.90;;;;;;5035359;28;20031;-81
2021/12/14 06:35:58;;;;;;;;;;;8.30;99.90;;;;;;5035527;28;20049;-81
2021/12/14 06:38:28;;;;;;;37.42;19.35;;;8.20;99.90;;;;;;5034926;28;19956;-81
2021/12/14 06:41:11;;;;;;;33.65;19.30;;;8.20;99.90;;;;;;5034966;28;20026;-81
2021/12/14 06:43:36;;;;;;;;;;;8.20;99.90;;;;;;5035611;28;20379;-81
2021/12/14 06:46:12;;;;;;;34.88;20.25;;;8.20;99.90;;;;;;5035313;28;19944;-81
2021/12/14 06:48:44;;;;;;;33.45;19.60;;;8.30;99.90;;;;;;5035237;28;20033;-81
2021/12/14 06:51:21;;;;;;;34.33;19.67;;;8.30;99.90;;;;;;5033490;28;20116;-81
2021/12/14 06:53:49;;;;;;;34.13;18.92;;;8.20;99.90;;;;;;5033522;28;20379;-81
2021/12/14 06:56:16;;;;;;;38.63;19.75;;;8.20;99.90;;;;;;5034724;28;20468;-81
2021/12/14 06:58:53;;;;;;;38.40;19.70;;;8.20;99.90;;;;;;5034492;28;20530;-82
2021/12/14 07:01:35;;;;;;;36.72;20.50;;;8.20;99.90;;;;;;5036385;28;20372;-81
2021/12/14 07:04:10;;;;;;;38.22;20.25;;;8.30;99.90;;;;;;5054133;28;20017;-81
2021/12/14 07:07:02;;;;;;;35.03;19.88;;;8.20;99.90;;;;;;5054122;28;20021;-81
2021/12/14 07:09:44;;;;;;;36.08;19.73;;;8.30;99.90;;;;;;5072485;28;20033;-82
2021/12/14 07:12:15;;;;;;;33.75;20.13;;;8.20;99.90;;;;;;5054141;28;20463;-82
2021/12/14 07:15:03;;;;;;;38.45;20.60;;;8.20;99.90;;;;;;5054109;28;20119;-81
2021/12/14 07:17:40;;;;;;;38.20;20.98;;;8.20;99.90;;;;;;5049997;28;20376;-81
2021/12/14 07:20:18;;;;;;;42.63;21.77;;;8.20;99.90;;;;;;5053295;28;20040;-81
2021/12/14 07:22:47;;;;;;;39.63;21.17;;;8.20;99.90;;;;;;5053771;28;20048;-81
2021/12/14 07:25:26;;;;;;;37.90;21.02;;;8.20;99.90;;;;;;5053846;28;20466;-81
2021/12/14 07:28:14;;;;;;;38.35;19.85;;;8.20;99.90;;;;;;5054211;28;20047;-81
2021/12/14 07:30:49;;;;;;;38.67;21.13;;;8.20;99.90;;;;;;5054118;28;20037;-81
2021/12/14 07:33:21;;;;;;;41.53;20.88;;;8.20;99.90;;;;;;5053851;28;20021;-80
2021/12/14 07:35:57;;;;;;;37.95;20.80;;;8.20;99.90;;;;;;5052380;28;20471;-81
2021/12/14 07:38:40;;;;;;;38.92;21.13;;;8.20;99.90;;;;;;5053606;28;20086;-81
2021/12/14 07:41:36;;;;;;;38.50;21.20;;;8.20;99.90;;;;;;5053789;28;20036;-81
2021/12/14 07:44:13;;;;;;;40.83;20.77;;;8.20;99.90;;;;;;5031556;28;20046;-81
2021/12/14 07:46:43;;;;;;;42.53;21.50;;;8.20;99.90;;;;;;5031720;28;20030;-81
2021/12/14 07:49:33;;;;;;;39.30;20.40;;;8.20;99.90;;;;;;5031630;28;20048;-81
2021/12/14 07:52:07;;;;;;;40.78;20.75;;;8.20;99.90;;;;;;5031213;28;20026;-81
2021/12/14 07:54:43;;;;;;;38.05;21.88;;;8.30;99.90;;;;;;5031416;28;20052;-80
2021/12/14 07:57:27;;;;;;;39.95;20.60;;;8.30;99.90;;;;;;5013921;28;20032;-82
2021/12/14 07:59:54;;;;;;;40.22;22.27;;;8.30;99.90;;;;;;5031937;28;20040;-82
2021/12/14 08:02:42;;;;;;;38.97;21.60;;;8.30;99.90;;;;;;5030927;28;20029;-82
2021/12/14 08:05:28;;;;;;;43.75;22.02;;;8.30;99.90;;;;;;5025843;28;20075;-82
2021/12/14 08:07:58;;;;;;;45.15;23.02;;;8.30;99.90;;;;;;5028959;28;20037;-82
2021/12/14 08:10:38;;;;;;;38.83;21.70;;;8.30;99.90;;;;;;5030608;28;20157;-82
2021/12/14 08:13:25;;;;;;;38.83;21.05;;;8.30;99.90;;;;;;5030707;28;20037;-82
2021/12/14 08:16:09;;;;;;;44.05;22.20;;;8.40;99.90;;;;;;5030602;28;20029;-82
2021/12/14 08:18:37;;;;;;;42.30;22.92;;;8.40;99.90;;;;;;5033989;28;20037;-82
2021/12/14 08:21:17;;;;;;;39.97;22.55;;;8.40;99.90;;;;;;5043747;28;20033;-82
2021/12/14 08:23:58;;;;;;;41.35;21.42;;;8.40;99.90;;;;;;5046303;28;20036;-82
2021/12/14 08:26:29;;;;;;;40.60;22.17;;;8.40;99.90;;;;;;5048741;28;20017;-81
2021/12/14 08:29:02;;;;;;;38.25;21.42;;;8.40;99.90;;;;;;5042574;28;20029;-82
2021/12/14 08:31:37;;;;;;;42.13;22.60;;;8.40;99.90;;;;;;5043701;28;20028;-82
2021/12/14 08:34:07;;;;;;;39.65;22.15;;;8.40;99.90;;;;;;5043851;28;20460;-82
2021/12/14 08:36:41;;;;;;;38.53;22.38;;;8.50;99.90;;;;;;5044429;28;20021;-82
2021/12/14 08:39:16;;;;;;;44.65;23.02;;;8.40;99.90;;;;;;5046948;28;20029;-82
2021/12/14 08:41:50;;;;;;;41.38;23.38;;;8.40;99.90;;;;;;5058727;28;20025;-82
2021/12/14 08:44:21;;;;;;;39.25;22.25;;;8.50;99.90;;;;;;5060151;28;20048;-82
2021/12/14 08:46:51;;;;;;;42.25;22.75;;;8.50;99.90;;;;;;5045615;28;20130;-82
2021/12/14 08:49:19;;;;;;;39.10;22.73;;;8.60;99.90;;;;;;5055244;28;20030;-80
2021/12/14 08:51:46;;;;;;;45.55;23.42;;;8.60;99.90;;;;;;5059197;28;20090;-82
2021/12/14 08:54:26;;;;;;;45.33;24.95;;;8.60;99.90;;;;;;5059439;28;20052;-81
2021/12/14 08:57:02;;;;;;;43.72;24.02;;;8.70;99.90;;;;;;5059475;28;20025;-82
2021/12/14 08:59:29;;;;;;;41.33;23.50;;;8.80;99.90;;;;;;5059328;28;20115;-82
2021/12/14 09:01:56;;;;;;;42.85;24.48;;;8.90;99.90;;;;;;5059310;28;20017;-82
2021/12/14 09:04:29;;;;;;;39.13;23.00;;;8.80;99.90;;;;;;5059058;28;20021;-82
2021/12/14 09:07:00;;;;;;;38.60;22.33;;;8.80;99.90;;;;;;5059512;28;20427;-81
2021/12/14 09:09:26;;;;;;;38.45;22.73;;;8.80;99.90;;;;;;5058813;28;20039;-82
2021/12/14 09:12:04;;;;;;;41.75;24.20;;;8.90;99.90;;;;;;5059596;28;20425;-81
2021/12/14 09:14:31;;;;;;;43.20;24.05;;;9.00;99.90;;;;;;5058581;28;20032;-77
2021/12/14 09:16:57;;;;;;;39.30;23.35;;;8.90;99.90;;;;;;5058090;28;20368;-76
2021/12/14 09:19:34;;;;;;;48.08;25.30;;;8.80;99.90;;;;;;5056852;28;20033;-75
2021/12/14 09:22:10;;;;;;;44.13;24.65;;;8.90;99.90;;;;;;5044186;28;20025;-76
2021/12/14 09:24:37;;;;;;;44.78;24.40;;;8.90;99.90;;;;;;5057606;28;20029;-75
2021/12/14 09:27:07;;;;;;;40.75;23.45;;;8.80;99.90;;;;;;5050807;28;20033;-75
2021/12/14 09:29:36;;;;;;;44.10;25.05;;;8.90;99.90;;;;;;5057508;28;20021;-75
2021/12/14 09:32:07;;;;;;;41.25;22.75;;;8.80;99.90;;;;;;5057790;28;20020;-75
2021/12/14 09:34:35;;;;;;;43.03;23.90;;;8.80;99.90;;;;;;5057421;28;20013;-75
2021/12/14 09:37:04;;;;;;;43.30;24.50;;;8.90;99.90;;;;;;5057532;28;20017;-75
2021/12/14 09:39:35;;;;;;;44.67;24.17;;;8.90;99.90;;;;;;5057395;28;20056;-75
2021/12/14 09:42:05;;;;;;;45.17;24.95;;;8.90;99.90;;;;;;5057606;28;20021;-75
2021/12/14 09:44:32;;;;;;;56.03;25.55;;;8.90;99.90;;;;;;5057399;28;20017;-75
2021/12/14 09:47:01;;;;;;;45.50;24.42;;;8.90;99.90;;;;;;5057764;28;20455;-75
2021/12/14 09:49:27;;;;;;;56.10;27.65;;;8.90;99.90;;;;;;5055093;28;20037;-75
2021/12/14 09:51:59;;;;;;;49.00;25.00;;;8.90;99.90;;;;;;5051698;28;20112;-75
2021/12/14 09:54:28;;;;;;;48.40;26.55;;;8.90;99.90;;;;;;5053203;28;20052;-76
2021/12/14 09:57:10;;;;;;;45.95;25.58;;;8.90;99.90;;;;;;5054743;28;20428;-76
2021/12/14 09:59:38;;;;;;;47.05;24.40;;;9.00;99.90;;;;;;5054673;28;20104;-75
2021/12/14 10:02:35;;;;;;;47.92;25.50;;;9.00;99.90;;;;;;5054533;28;20036;-75
2021/12/14 10:05:07;;;;;;;51.53;26.13;;;9.10;99.90;;;;;;5032253;28;20128;-76
2021/12/14 10:07:33;;;;;;;47.15;25.42;;;9.10;99.90;;;;;;5032164;28;20040;-76
2021/12/14 10:10:00;;;;;;;50.55;25.92;;;9.10;99.90;;;;;;5032036;28;20033;-76
2021/12/14 10:15:00;;;;;;;49.95;26.27;;;9.20;99.90;;;;;;5031726;28;20129;-76
2021/12/14 10:17:26;;;;;;;44.42;24.85;;;9.20;99.90;;;;;;5031334;28;20515;-76
2021/12/14 10:19:52;;;;;;;50.58;25.65;;;9.20;99.90;;;;;;5031731;28;20356;-76
2021/12/14 10:22:26;;;;;;;55.08;27.60;;;9.20;99.90;;;;;;5031926;28;20034;-75
2021/12/14 10:25:02;;;;;;;48.88;25.73;;;9.30;99.90;;;;;;5031994;28;20037;-78
2021/12/14 10:27:31;;;;;;;49.95;26.45;;;9.30;99.90;;;;;;5031736;28;20025;-77
2021/12/14 10:29:59;;;;;;;46.70;26.60;;;9.20;99.90;;;;;;5031819;28;20036;-76
2021/12/14 10:32:29;;;;;;;50.95;26.63;;;9.30;99.90;;;;;;5015197;28;20068;-74
2021/12/14 10:35:01;;;;;;;47.08;26.42;;;9.40;99.90;;;;;;5031765;28;20037;-75
2021/12/14 10:37:46;;;;;;;49.30;27.25;;;9.30;99.90;;;;;;5031842;28;20084;-75
2021/12/14 10:43:12;;;;;;;56.30;27.15;;;9.40;99.90;;;;;;5033791;28;20776;-77
2021/12/14 10:45:52;;;;;;;54.15;27.92;;;9.30;99.90;;;;;;5032750;28;20472;-78
2021/12/14 10:48:20;;;;;;;62.05;29.67;;;9.30;99.90;;;;;;5031864;28;20415;-76
2021/12/14 10:50:49;;;;;;;61.50;29.33;;;9.30;99.90;;;;;;5051336;28;20174;-76
2021/12/14 10:53:17;;;;;;;55.78;29.58;;;9.30;99.90;;;;;;5053363;28;20037;-76
2021/12/14 10:55:52;;;;;;;59.92;30.42;;;9.30;99.90;;;;;;5052929;28;20029;-76
2021/12/14 10:58:22;;;;;;;59.67;29.17;;;9.20;99.90;;;;;;5053106;28;20021;-75
2021/12/14 11:00:52;;;;;;;61.65;29.67;;;9.30;99.90;;;;;;5052796;28;20060;-76
2021/12/14 11:03:22;;;;;;;56.03;30.10;;;9.30;99.90;;;;;;5053450;28;20032;-76
2021/12/14 11:05:53;;;;;;;56.15;29.23;;;9.30;99.90;;;;;;5053179;28;20028;-76
2021/12/14 11:11:36;;;;;;;58.67;30.65;;;9.40;99.90;;;;;;5050607;28;20044;-75
2021/12/14 11:14:06;;;;;;;58.38;31.58;;;9.40;99.90;;;;;;5050935;28;20156;-76
2021/12/14 11:19:41;;;;;;;60.80;30.90;;;9.30;99.90;;;;;;5050927;28;20035;-77
2021/12/14 11:22:31;;;;;;;66.90;31.38;;;9.40;99.90;;;;;;5050682;28;20041;-75
2021/12/14 11:25:03;;;;;;;64.75;31.25;;;9.40;99.90;;;;;;5050714;28;20460;-75
2021/12/14 11:27:36;;;;;;;63.35;31.60;;;9.40;99.90;;;;;;5050504;28;20046;-76
2021/12/14 11:30:24;;;;;;;62.95;31.75;;;9.40;99.90;;;;;;5050476;28;20414;-77
2021/12/14 11:33:24;;;;;;;67.45;32.42;;;9.40;99.90;;;;;;5050369;28;20049;-76
2021/12/14 11:35:58;;;;;;;63.25;32.90;;;9.40;99.90;;;;;;5050757;28;20401;-78
2021/12/14 11:38:38;;;;;;;65.07;31.83;;;9.50;99.90;;;;;;5051571;28;20079;-79
2021/12/14 11:41:24;;;;;;;71.13;33.10;;;9.50;99.90;;;;;;5050838;28;20033;-79
2021/12/14 11:43:59;;;;;;;70.47;33.75;;;9.40;99.90;;;;;;5050660;28;20037;-78
2021/12/14 11:46:25;;;;;;;69.55;33.17;;;9.40;99.90;;;;;;5051582;28;20049;-78
2021/12/14 11:48:57;;;;;;;68.82;33.78;;;9.50;99.90;;;;;;5051586;28;20365;-77
2021/12/14 11:51:25;;;;;;;62.13;32.83;;;9.50;99.90;;;;;;5053363;28;20025;-79
2021/12/14 11:53:54;;;;;;;75.45;36.00;;;9.50;99.90;;;;;;5050790;28;20399;-76
2021/12/14 11:56:22;;;;;;;79.95;35.08;;;9.50;99.90;;;;;;5051512;28;20056;-76
2021/12/14 11:58:54;;;;;;;73.57;33.05;;;9.50;99.90;;;;;;5050790;28;20371;-76
2021/12/14 12:01:34;;;;;;;68.78;33.25;;;9.50;99.90;;;;;;5051552;28;20468;-76
2021/12/14 12:04:16;;;;;;;74.95;34.92;;;9.50;99.90;;;;;;5051372;28;20355;-76
2021/12/14 12:09:33;;;;;;;76.38;34.67;;;9.50;99.90;;;;;;5051151;28;20028;-76
2021/12/14 12:12:04;;;;;;;75.72;35.85;;;9.50;99.90;;;;;;5049664;28;20387;-76
2021/12/14 12:14:30;;;;;;;82.13;36.80;;;9.40;99.90;;;;;;5049730;28;20028;-78
2021/12/14 12:17:07;;;;;;;83.70;37.13;;;9.50;99.90;;;;;;5052434;28;20037;-78
2021/12/14 12:19:34;;;;;;;78.35;35.53;;;9.50;99.90;;;;;;5051815;28;20375;-74
2021/12/14 12:22:12;;;;;;;91.93;38.47;;;9.50;99.90;;;;;;5051915;28;20033;-74
2021/12/14 12:24:49;;;;;;;88.20;37.65;;;9.50;99.90;;;;;;5051646;28;20029;-74
2021/12/14 12:27:18;;;;;;;97.50;38.42;;;9.50;99.90;;;;;;5051604;28;20051;-74
2021/12/14 12:29:45;;;;;;;95.82;41.63;;;9.40;99.90;;;;;;5051811;28;20438;-74
2021/12/14 12:32:21;;;;;;;96.57;39.30;;;9.50;99.90;;;;;;5051573;28;20076;-74
2021/12/14 12:34:48;;;;;;;101.18;41.97;;;9.40;99.90;;;;;;5051430;28;20048;-74
2021/12/14 12:37:14;;;;;;;105.25;40.83;;;9.40;99.90;;;;;;5051664;28;20551;-74
2021/12/14 12:39:48;;;;;;;115.68;42.00;;;9.40;99.90;;;;;;5051484;28;20083;-74
2021/12/14 12:42:15;;;;;;;98.32;39.88;;;9.50;99.90;;;;;;5051551;28;20033;-74
2021/12/14 12:44:43;;;;;;;107.40;41.58;;;9.50;99.90;;;;;;5051527;28;20017;-74
2021/12/14 12:47:17;;;;;;;113.47;42.10;;;9.50;99.90;;;;;;5051820;28;20375;-74
2021/12/14 12:49:58;;;;;;;133.55;43.95;;;9.50;99.90;;;;;;5051126;28;20099;-74
2021/12/14 12:52:32;;;;;;;122.43;41.60;;;9.50;99.90;;;;;;5051203;28;20470;-74
2021/12/14 12:55:10;;;;;;;120.70;40.78;;;9.40;99.90;;;;;;5051603;28;20472;-74
2021/12/14 12:58:09;;;;;;;124.05;43.97;;;9.40;99.90;;;;;;5051180;28;20017;-74
2021/12/14 13:00:38;;;;;;;112.18;38.95;;;9.50;99.90;;;;;;5051261;28;20031;-78
2021/12/14 13:03:18;;;;;;;120.13;40.35;;;9.40;99.90;;;;;;5051303;28;20029;-77
2021/12/14 13:06:09;;;;;;;115.53;40.50;;;9.40;99.90;;;;;;5051233;28;20029;-76
2021/12/14 13:08:40;;;;;;;132.05;41.58;;;9.40;99.90;;;;;;5044171;28;20124;-77
2021/12/14 13:11:13;;;;;;;101.28;37.17;;;9.40;99.90;;;;;;5039332;28;20045;-77
2021/12/14 13:13:55;;;;;;;111.20;38.35;;;9.50;99.90;;;;;;5029247;28;20045;-77
2021/12/14 13:16:26;;;;;;;102.30;37.20;;;9.40;99.90;;;;;;5028004;28;20021;-77
2021/12/14 13:19:11;;;;;;;120.78;40.10;;;9.40;99.90;;;;;;5032034;28;20502;-77
2021/12/14 13:21:51;;;;;;;125.55;38.97;;;9.40;99.90;;;;;;5042069;28;20025;-77
2021/12/14 13:24:30;;;;;;;89.50;35.53;;;9.40;99.90;;;;;;5037046;28;20064;-77
2021/12/14 13:27:06;;;;;;;91.13;35.22;;;9.50;99.90;;;;;;5040173;28;20403;-77
2021/12/14 13:29:44;;;;;;;90.88;35.63;;;9.50;99.90;;;;;;5016276;28;20056;-80
2021/12/14 13:32:24;;;;;;;96.30;35.45;;;9.50;99.90;;;;;;5041114;28;20029;-77
2021/12/14 13:34:57;;;;;;;89.55;35.45;;;9.50;99.90;;;;;;5035193;28;20034;-75
2021/12/14 13:37:30;;;;;;;81.07;32.50;;;9.40;99.90;;;;;;5040243;28;20033;-74
2021/12/14 13:39:56;;;;;;;94.53;34.67;;;9.50;99.90;;;;;;5042380;28;20044;-74
2021/12/14 13:42:47;;;;;;;81.22;34.03;;;9.50;99.90;;;;;;5036631;28;20029;-74
2021/12/14 13:45:41;;;;;;;91.35;33.72;;;9.50;99.90;;;;;;5040718;28;20471;-74
2021/12/14 13:48:11;;;;;;;84.35;32.72;;;9.50;99.90;;;;;;5051905;28;20087;-75
2021/12/14 13:50:44;;;;;;;84.80;34.28;;;9.50;99.90;;;;;;5052720;28;20025;-74
2021/12/14 13:53:10;;;;;;;97.70;35.22;;;9.50;99.90;;;;;;5053601;28;20543;-73